Time;durP1;ratioP1;P1;durP2;ratioP2;P2;SDS_P1;SDS_P2;PMS_P1;PMS_P2;Temp;Humidity;BMP_temperature;BMP_pressure;BME280_temperature;BME280_humidity;BME280_pressure;Samples;Min_cycle;Max_cycle;Signal;HPM_P1;HPM_P2
2023/11/02 05:01:22;;;;;;;0.93;0.93;;;9.00;99.90;;;;;;5384822;23;20266;-73
2023/11/02 05:03:51;;;;;;;1.10;1.10;;;9.00;99.90;;;;;;4859039;29;20223;-74
2023/11/02 05:06:17;;;;;;;0.77;0.77;;;9.10;99.90;;;;;;4859435;29;20224;-74
2023/11/02 05:08:44;;;;;;;1.27;1.10;;;9.10;99.90;;;;;;4858350;29;20217;-74
2023/11/02 05:11:11;;;;;;;1.35;0.95;;;9.10;99.90;;;;;;4858653;29;20627;-74
2023/11/02 05:13:38;;;;;;;0.60;0.60;;;9.20;99.90;;;;;;4856313;29;20576;-74
2023/11/02 05:16:05;;;;;;;1.40;1.40;;;9.20;99.90;;;;;;4857289;29;20220;-74
2023/11/02 05:18:33;;;;;;;1.75;1.02;;;9.20;99.90;;;;;;4857093;29;20670;-74
2023/11/02 05:21:00;;;;;;;1.45;0.80;;;9.20;99.90;;;;;;4850908;29;20241;-74
2023/11/02 05:23:27;;;;;;;9.07;0.80;;;9.20;99.90;;;;;;4846219;29;20229;-74
2023/11/02 05:25:53;;;;;;;0.55;0.55;;;9.20;99.90;;;;;;4855728;29;20985;-73
2023/11/02 05:28:21;;;;;;;1.13;0.95;;;9.20;99.90;;;;;;4851372;29;20212;-73
2023/11/02 05:30:48;;;;;;;1.35;1.33;;;9.20;99.90;;;;;;4844602;29;20597;-74
2023/11/02 05:33:15;;;;;;;1.38;1.00;;;9.20;99.90;;;;;;4849496;29;20220;-73
2023/11/02 05:35:43;;;;;;;0.73;0.73;;;9.10;99.90;;;;;;4843056;29;20217;-73
2023/11/02 05:38:10;;;;;;;0.93;0.90;;;9.10;99.90;;;;;;4849776;29;20213;-73
2023/11/02 05:40:36;;;;;;;2.70;0.82;;;9.20;99.90;;;;;;4845579;29;20228;-73
2023/11/02 05:43:03;;;;;;;0.70;0.70;;;9.10;99.90;;;;;;4850919;29;20240;-75
2023/11/02 05:45:30;;;;;;;1.73;0.63;;;9.20;99.90;;;;;;4857520;29;20213;-74
2023/11/02 05:47:57;;;;;;;2.30;1.13;;;9.10;99.90;;;;;;4852209;29;20251;-75
2023/11/02 05:50:24;;;;;;;1.00;1.00;;;9.10;99.90;;;;;;4848673;29;20686;-75
2023/11/02 05:52:52;;;;;;;0.40;0.40;;;9.10;99.90;;;;;;4848967;29;20758;-75
2023/11/02 05:55:19;;;;;;;3.25;1.58;;;9.10;99.90;;;;;;4850578;29;20224;-75
2023/11/02 05:57:45;;;;;;;0.88;0.88;;;9.20;99.90;;;;;;4848703;29;20206;-74
2023/11/02 06:00:14;;;;;;;3.35;1.00;;;9.20;99.90;;;;;;4854352;29;20217;-74
2023/11/02 06:02:40;;;;;;;1.85;0.85;;;9.20;99.90;;;;;;4855536;29;20237;-74
2023/11/02 06:05:08;;;;;;;2.05;1.40;;;9.30;99.90;;;;;;4849142;29;20593;-74
2023/11/02 06:07:36;;;;;;;1.08;1.08;;;9.30;99.90;;;;;;4857576;29;20212;-74
2023/11/02 06:10:05;;;;;;;1.27;1.17;;;9.30;99.90;;;;;;4853120;29;20209;-74
2023/11/02 06:12:31;;;;;;;2.03;1.33;;;9.30;99.90;;;;;;4857418;29;20224;-75
2023/11/02 06:14:58;;;;;;;1.17;1.17;;;9.40;99.90;;;;;;4857895;29;20217;-75
2023/11/02 06:17:25;;;;;;;0.70;0.70;;;9.40;99.90;;;;;;4847369;29;20210;-74
2023/11/02 06:19:52;;;;;;;1.17;1.17;;;9.40;99.90;;;;;;4843583;29;20721;-75
2023/11/02 06:22:19;;;;;;;0.90;0.90;;;9.50;99.90;;;;;;4850061;29;20240;-75
2023/11/02 06:24:45;;;;;;;0.70;0.70;;;9.50;99.90;;;;;;4843305;29;20567;-75
2023/11/02 06:27:14;;;;;;;1.48;1.08;;;9.50;99.90;;;;;;4854786;29;20297;-75
2023/11/02 06:29:40;;;;;;;1.40;1.40;;;9.60;99.90;;;;;;4853864;29;20205;-75
2023/11/02 06:32:07;;;;;;;1.25;1.25;;;9.60;99.90;;;;;;4845955;29;20225;-75
2023/11/02 06:34:36;;;;;;;1.10;1.10;;;9.60;99.90;;;;;;4851499;29;20261;-74
2023/11/02 06:37:03;;;;;;;2.08;0.82;;;9.60;99.90;;;;;;4852878;29;20214;-75
2023/11/02 06:39:30;;;;;;;6.00;1.00;;;9.60;99.90;;;;;;4847945;29;20226;-75
2023/11/02 06:41:57;;;;;;;0.73;0.70;;;9.60;99.90;;;;;;4856286;29;20233;-75
2023/11/02 06:44:25;;;;;;;1.00;1.00;;;9.60;99.90;;;;;;4852331;29;20281;-75
2023/11/02 06:46:53;;;;;;;2.45;0.70;;;9.70;99.90;;;;;;4848182;29;20218;-75
2023/11/02 06:49:19;;;;;;;1.05;0.80;;;9.70;99.90;;;;;;4847853;29;20218;-75
2023/11/02 06:51:46;;;;;;;3.90;0.93;;;9.70;99.90;;;;;;4848514;29;20230;-75
2023/11/02 06:54:13;;;;;;;1.23;1.23;;;9.70;99.90;;;;;;4847905;29;20582;-75
2023/11/02 06:56:40;;;;;;;0.95;0.95;;;9.80;99.90;;;;;;4855604;29;20216;-74
2023/11/02 06:59:07;;;;;;;0.35;0.35;;;9.80;99.90;;;;;;4850192;29;20296;-73
2023/11/02 07:01:36;;;;;;;1.48;0.80;;;9.90;99.90;;;;;;4854723;29;20238;-74
2023/11/02 07:04:03;;;;;;;0.55;0.55;;;9.90;99.90;;;;;;4847837;29;20289;-74
2023/11/02 07:06:30;;;;;;;1.35;0.80;;;9.90;99.90;;;;;;4854034;29;20270;-74
2023/11/02 07:08:57;;;;;;;1.50;1.00;;;9.90;99.90;;;;;;4849808;29;20222;-75
2023/11/02 07:11:24;;;;;;;0.80;0.80;;;10.00;99.90;;;;;;4850382;29;20235;-74
2023/11/02 07:13:50;;;;;;;0.65;0.65;;;10.00;99.90;;;;;;4847047;29;20225;-73
2023/11/02 07:16:18;;;;;;;0.75;0.75;;;10.10;99.90;;;;;;4850070;29;20214;-74
2023/11/02 07:18:46;;;;;;;0.85;0.85;;;10.10;99.90;;;;;;4850856;29;20652;-74
2023/11/02 07:21:13;;;;;;;1.33;1.00;;;10.20;99.90;;;;;;4850592;29;20237;-74
2023/11/02 07:23:40;;;;;;;0.73;0.73;;;10.20;99.90;;;;;;4854287;29;20226;-74
2023/11/02 07:26:08;;;;;;;0.80;0.80;;;10.30;99.90;;;;;;4852541;29;20218;-74
2023/11/02 07:28:35;;;;;;;1.00;0.60;;;10.30;99.90;;;;;;4850695;29;20215;-74
2023/11/02 07:31:03;;;;;;;0.77;0.75;;;10.30;99.90;;;;;;4853833;29;20246;-74
2023/11/02 07:33:31;;;;;;;0.95;0.70;;;10.40;99.90;;;;;;4855000;29;20217;-74
2023/11/02 07:35:59;;;;;;;0.52;0.52;;;10.50;99.90;;;;;;4854339;29;20272;-74
2023/11/02 07:38:26;;;;;;;0.60;0.60;;;10.50;99.90;;;;;;4852968;29;20221;-73
2023/11/02 07:40:53;;;;;;;0.95;0.75;;;10.50;99.90;;;;;;4852832;29;20239;-73
2023/11/02 07:43:20;;;;;;;0.40;0.40;;;10.60;99.90;;;;;;4856248;29;20239;-73
2023/11/02 07:45:51;;;;;;;0.68;0.68;;;10.60;99.90;;;;;;4846641;29;20228;-73
2023/11/02 07:48:22;;;;;;;2.00;0.82;;;10.60;99.90;;;;;;4855589;29;20584;-73
2023/11/02 07:51:15;;;;;;;1.20;0.30;;;10.70;99.90;;;;;;4854580;29;20256;-73
2023/11/02 07:53:43;;;;;;;1.60;0.38;;;10.70;99.90;;;;;;4849615;29;20210;-73
2023/11/02 07:56:10;;;;;;;0.60;0.60;;;10.70;99.90;;;;;;4856566;29;20232;-73
2023/11/02 07:58:42;;;;;;;3.60;0.77;;;10.70;99.90;;;;;;4855674;29;20293;-73
2023/11/02 08:01:10;;;;;;;0.35;0.35;;;10.70;99.90;;;;;;4852223;29;20610;-73
2023/11/02 08:03:38;;;;;;;1.73;0.55;;;10.70;99.90;;;;;;4852983;29;20811;-73
2023/11/02 08:06:11;;;;;;;0.93;0.70;;;10.70;99.90;;;;;;4851937;29;20218;-73
2023/11/02 08:08:44;;;;;;;1.75;0.40;;;10.80;99.90;;;;;;4849474;29;20676;-73
2023/11/02 08:11:11;;;;;;;1.17;0.52;;;10.80;99.90;;;;;;4851815;29;20235;-72
2023/11/02 08:13:38;;;;;;;0.70;0.70;;;10.90;99.90;;;;;;4849501;29;20208;-73
2023/11/02 08:16:04;;;;;;;0.63;0.63;;;10.90;99.90;;;;;;4850495;29;20291;-73
2023/11/02 08:18:31;;;;;;;2.17;0.45;;;10.90;99.90;;;;;;4854052;29;20215;-73
2023/11/02 08:20:58;;;;;;;0.63;0.60;;;11.00;99.90;;;;;;4850661;29;20246;-73
2023/11/02 08:23:26;;;;;;;0.77;0.68;;;11.00;99.90;;;;;;4851216;29;20227;-73
2023/11/02 08:25:52;;;;;;;0.90;0.30;;;11.00;99.90;;;;;;4855513;29;20219;-72
2023/11/02 08:28:19;;;;;;;1.80;0.70;;;11.00;99.90;;;;;;4853614;29;20214;-73
2023/11/02 08:30:46;;;;;;;0.50;0.50;;;11.10;99.90;;;;;;4854088;29;20608;-73
2023/11/02 08:33:13;;;;;;;0.63;0.63;;;11.10;99.90;;;;;;4854567;29;20215;-73
2023/11/02 08:35:39;;;;;;;2.70;0.93;;;11.10;99.90;;;;;;4849342;29;20220;-73
2023/11/02 08:38:06;;;;;;;0.93;0.93;;;11.20;99.90;;;;;;4857335;29;20221;-73
2023/11/02 08:40:35;;;;;;;0.50;0.50;;;11.20;99.90;;;;;;4856972;29;20243;-74
2023/11/02 08:43:03;;;;;;;0.50;0.50;;;11.30;99.90;;;;;;4854490;29;20268;-75
2023/11/02 08:45:29;;;;;;;0.90;0.87;;;11.30;99.90;;;;;;4847548;29;20224;-74
2023/11/02 08:47:56;;;;;;;0.50;0.47;;;11.30;99.90;;;;;;4852017;29;20484;-75
2023/11/02 08:50:23;;;;;;;1.90;1.10;;;11.40;99.90;;;;;;4853707;29;20711;-74
2023/11/02 08:52:50;;;;;;;1.98;0.85;;;11.40;99.90;;;;;;4849640;29;20512;-74
2023/11/02 08:55:16;;;;;;;1.73;0.75;;;11.40;99.90;;;;;;4848397;29;20240;-74
2023/11/02 08:57:45;;;;;;;0.73;0.73;;;11.40;99.90;;;;;;4856383;29;20220;-74
2023/11/02 09:00:14;;;;;;;0.38;0.38;;;11.50;99.90;;;;;;4856228;29;20280;-73
2023/11/02 09:02:41;;;;;;;0.63;0.63;;;11.50;99.90;;;;;;4851764;29;20220;-73
2023/11/02 09:05:08;;;;;;;0.70;0.50;;;11.60;99.90;;;;;;4852983;29;20212;-74
2023/11/02 09:07:35;;;;;;;2.72;0.50;;;11.60;99.90;;;;;;4854855;29;20469;-75
2023/11/02 09:10:03;;;;;;;1.30;0.30;;;11.70;99.90;;;;;;4854474;29;20219;-73
2023/11/02 09:12:29;;;;;;;2.20;1.40;;;11.70;99.90;;;;;;4851975;29;20785;-73
2023/11/02 09:14:58;;;;;;;0.55;0.55;;;11.70;99.90;;;;;;4847452;29;20844;-74
2023/11/02 09:17:25;;;;;;;0.87;0.87;;;11.80;99.90;;;;;;4852953;29;20776;-74
2023/11/02 09:19:51;;;;;;;0.60;0.60;;;11.80;99.90;;;;;;4857132;29;20489;-73
2023/11/02 09:22:18;;;;;;;1.17;0.60;;;11.90;99.90;;;;;;4859508;29;20497;-73
2023/11/02 09:24:45;;;;;;;0.20;0.20;;;11.90;99.90;;;;;;4855383;29;20546;-73
2023/11/02 09:27:12;;;;;;;0.47;0.47;;;12.00;99.90;;;;;;4859540;29;20481;-73
2023/11/02 09:29:40;;;;;;;0.37;0.37;;;12.00;99.90;;;;;;4857971;29;20473;-73
2023/11/02 09:32:08;;;;;;;3.13;1.53;;;12.00;99.90;;;;;;4855081;29;20644;-74
2023/11/02 09:34:38;;;;;;;0.40;0.40;;;12.00;99.90;;;;;;4856729;29;20854;-75
2023/11/02 09:37:05;;;;;;;0.30;0.30;;;12.00;99.90;;;;;;4858471;29;20560;-74
2023/11/02 09:39:32;;;;;;;1.40;1.40;;;12.00;99.90;;;;;;4860054;29;20491;-74
2023/11/02 09:42:00;;;;;;;0.97;0.93;;;12.00;99.90;;;;;;4853004;29;20510;-75
2023/11/02 09:44:27;;;;;;;0.23;0.23;;;12.00;99.90;;;;;;4854755;29;20493;-73
2023/11/02 09:46:55;;;;;;;1.17;0.90;;;12.00;99.90;;;;;;4854398;29;20484;-75
2023/11/02 09:49:23;;;;;;;0.93;0.80;;;12.10;99.90;;;;;;4858918;29;20533;-74
2023/11/02 09:51:50;;;;;;;0.70;0.70;;;12.10;99.90;;;;;;4857626;29;20250;-74
2023/11/02 09:54:16;;;;;;;0.70;0.70;;;12.10;99.90;;;;;;4859064;29;20480;-74
2023/11/02 09:56:44;;;;;;;0.30;0.30;;;12.20;99.90;;;;;;4859997;29;20508;-75
2023/11/02 09:59:11;;;;;;;2.40;0.50;;;12.30;99.90;;;;;;4857573;29;20477;-75
2023/11/02 10:01:39;;;;;;;0.50;0.47;;;12.30;99.90;;;;;;4858819;29;20511;-74
2023/11/02 10:04:06;;;;;;;0.67;0.50;;;12.30;99.90;;;;;;4859462;29;20493;-76
2023/11/02 10:06:35;;;;;;;0.97;0.97;;;12.30;99.90;;;;;;4857546;29;20476;-75
2023/11/02 10:09:03;;;;;;;0.60;0.60;;;12.30;99.90;;;;;;4857136;29;20522;-74
2023/11/02 10:11:31;;;;;;;0.57;0.57;;;12.40;99.90;;;;;;4859262;29;20295;-75
2023/11/02 10:13:58;;;;;;;0.70;0.70;;;12.40;99.90;;;;;;4856717;29;20470;-75
2023/11/02 10:16:26;;;;;;;1.80;0.67;;;12.40;99.90;;;;;;4856588;29;20588;-75
2023/11/02 10:18:53;;;;;;;5.40;0.90;;;12.40;99.90;;;;;;4857703;29;20469;-75
2023/11/02 10:21:20;;;;;;;0.40;0.40;;;12.40;99.90;;;;;;4857670;29;20832;-75
2023/11/02 10:23:49;;;;;;;0.37;0.37;;;12.40;99.90;;;;;;4856075;29;20247;-74
2023/11/02 10:26:16;;;;;;;0.40;0.40;;;12.40;99.90;;;;;;4856412;29;20477;-73
2023/11/02 10:28:43;;;;;;;0.60;0.60;;;12.40;99.90;;;;;;4857720;29;20473;-74
2023/11/02 10:31:10;;;;;;;1.03;0.60;;;12.40;99.90;;;;;;4858327;29;20510;-74
2023/11/02 10:33:37;;;;;;;0.60;0.60;;;12.50;99.90;;;;;;4855380;29;20480;-73
2023/11/02 10:36:06;;;;;;;0.50;0.50;;;12.40;99.90;;;;;;4856149;29;20472;-74
2023/11/02 10:38:33;;;;;;;0.60;0.60;;;12.40;99.90;;;;;;4858652;29;20487;-74
2023/11/02 10:41:01;;;;;;;0.70;0.70;;;12.40;99.90;;;;;;4858773;29;20485;-73
2023/11/02 10:43:30;;;;;;;1.80;0.60;;;12.40;99.90;;;;;;4859598;29;20587;-73
2023/11/02 10:45:57;;;;;;;1.50;1.40;;;12.40;99.90;;;;;;4858248;29;20978;-74
2023/11/02 10:48:28;;;;;;;0.33;0.33;;;12.40;99.90;;;;;;4858904;29;20484;-73
2023/11/02 10:50:57;;;;;;;0.40;0.40;;;12.50;99.90;;;;;;4857534;29;20500;-74
2023/11/02 10:53:35;;;;;;;0.60;0.60;;;12.60;99.90;;;;;;4860533;29;20480;-74
2023/11/02 10:56:13;;;;;;;0.80;0.80;;;12.60;99.90;;;;;;4859006;29;20473;-73
2023/11/02 10:58:41;;;;;;;0.37;0.37;;;12.60;99.90;;;;;;4857740;29;20461;-74
2023/11/02 11:01:09;;;;;;;1.20;1.20;;;12.60;99.90;;;;;;4857547;29;20962;-73
2023/11/02 11:03:36;;;;;;;0.97;0.50;;;12.70;99.90;;;;;;4854281;29;20559;-74
2023/11/02 11:06:05;;;;;;;0.60;0.60;;;12.80;99.90;;;;;;4858382;29;20477;-73
2023/11/02 11:08:33;;;;;;;0.40;0.40;;;12.80;99.90;;;;;;4857742;29;20470;-74
2023/11/02 11:11:02;;;;;;;0.23;0.23;;;12.90;99.90;;;;;;4857351;29;20497;-73
2023/11/02 11:13:32;;;;;;;0.60;0.60;;;13.00;99.90;;;;;;4858551;29;20469;-73
2023/11/02 11:16:00;;;;;;;1.40;0.90;;;13.20;99.90;;;;;;4851892;29;20477;-74
2023/11/02 11:18:28;;;;;;;1.83;0.77;;;13.20;99.90;;;;;;4858750;29;20501;-74
2023/11/02 11:20:57;;;;;;;0.50;0.50;;;13.20;99.90;;;;;;4846971;29;20612;-73
2023/11/02 11:23:24;;;;;;;0.70;0.70;;;13.20;99.90;;;;;;4853738;29;20484;-73
2023/11/02 11:25:58;;;;;;;0.40;0.40;;;13.20;99.90;;;;;;4857621;29;20549;-73
2023/11/02 11:28:30;;;;;;;0.50;0.50;;;13.20;99.90;;;;;;4857310;29;20481;-74
2023/11/02 11:30:56;;;;;;;0.63;0.60;;;13.20;99.90;;;;;;4858676;29;20502;-74
2023/11/02 11:33:49;;;;;;;3.83;0.70;;;13.10;99.90;;;;;;4857892;29;20529;-74
2023/11/02 11:36:22;;;;;;;0.63;0.63;;;13.10;99.90;;;;;;4857698;29;20476;-74
2023/11/02 11:38:49;;;;;;;0.90;0.90;;;13.20;99.90;;;;;;4857876;29;20466;-74
2023/11/02 11:41:42;;;;;;;0.93;0.93;;;13.10;99.90;;;;;;4858563;29;20519;-74
2023/11/02 11:44:17;;;;;;;0.97;0.97;;;13.20;99.90;;;;;;4856000;29;20493;-74
2023/11/02 11:46:45;;;;;;;1.20;1.20;;;13.10;99.90;;;;;;4854683;29;20472;-75
2023/11/02 11:49:48;;;;;;;1.80;0.93;;;13.10;99.90;;;;;;4855540;29;20482;-74
2023/11/02 11:52:28;;;;;;;0.77;0.77;;;13.10;99.90;;;;;;4855920;29;20494;-73
2023/11/02 11:54:55;;;;;;;1.70;1.60;;;13.10;99.90;;;;;;4852761;29;20842;-73
2023/11/02 11:57:54;;;;;;;0.70;0.70;;;13.10;99.90;;;;;;4856433;29;20473;-74
2023/11/02 12:00:24;;;;;;;1.90;1.83;;;13.00;99.90;;;;;;4855820;29;20465;-74
2023/11/02 12:02:54;;;;;;;3.33;3.10;;;13.00;99.90;;;;;;4857766;29;20465;-73
2023/11/02 12:05:55;;;;;;;2.87;2.67;;;13.00;99.90;;;;;;4853610;29;20952;-74
2023/11/02 12:08:22;;;;;;;0.97;0.97;;;13.00;99.90;;;;;;4851995;29;20989;-75
2023/11/02 12:10:52;;;;;;;0.87;0.87;;;13.00;99.90;;;;;;4856917;29;20569;-74
2023/11/02 12:13:19;;;;;;;0.60;0.60;;;13.00;99.90;;;;;;4857104;29;20461;-74
2023/11/02 12:15:57;;;;;;;3.60;1.90;;;13.10;99.90;;;;;;4856839;29;20463;-74
2023/11/02 12:18:30;;;;;;;0.20;0.20;;;13.20;99.90;;;;;;4857321;29;20517;-73
2023/11/02 12:20:59;;;;;;;2.83;0.80;;;13.20;99.90;;;;;;4850804;29;20998;-73
2023/11/02 12:23:34;;;;;;;0.30;0.30;;;13.20;99.90;;;;;;4852237;29;20479;-74
2023/11/02 12:26:03;;;;;;;2.30;0.77;;;13.30;99.90;;;;;;4856992;29;20470;-73
2023/11/02 12:28:39;;;;;;;0.80;0.40;;;13.30;99.90;;;;;;4857442;29;20998;-76
2023/11/02 12:31:08;;;;;;;0.70;0.40;;;13.30;99.90;;;;;;4856869;29;20524;-72
2023/11/02 12:33:35;;;;;;;0.83;0.83;;;13.30;99.90;;;;;;4851492;29;20485;-74
2023/11/02 12:36:02;;;;;;;0.50;0.50;;;13.40;99.90;;;;;;4849478;29;20493;-71
2023/11/02 12:38:35;;;;;;;0.97;0.60;;;13.40;99.90;;;;;;4849222;29;20934;-74
2023/11/02 12:41:04;;;;;;;0.70;0.70;;;13.40;99.90;;;;;;4847660;29;20496;-74
2023/11/02 12:43:33;;;;;;;1.03;0.40;;;13.50;99.90;;;;;;4850722;29;20536;-74
2023/11/02 12:46:10;;;;;;;1.80;0.93;;;13.40;99.90;;;;;;4855270;29;20474;-73
2023/11/02 12:48:39;;;;;;;2.23;2.03;;;13.30;99.90;;;;;;4854576;29;20536;-74
2023/11/02 12:51:17;;;;;;;1.37;0.93;;;13.30;99.90;;;;;;4856231;29;20505;-73
2023/11/02 12:53:44;;;;;;;1.03;1.03;;;13.30;99.90;;;;;;4859295;29;20504;-73
2023/11/02 12:56:12;;;;;;;2.17;1.40;;;13.30;99.90;;;;;;4855278;29;20488;-75
2023/11/02 12:58:40;;;;;;;1.00;1.00;;;13.30;99.90;;;;;;4855368;29;20529;-73
2023/11/02 13:01:08;;;;;;;1.17;1.17;;;13.30;99.90;;;;;;4852321;29;20505;-74
2023/11/02 13:03:35;;;;;;;0.60;0.60;;;13.40;99.90;;;;;;4859810;29;20468;-74
2023/11/02 13:06:03;;;;;;;0.80;0.80;;;13.40;99.90;;;;;;4859888;29;20493;-73
2023/11/02 13:08:32;;;;;;;1.17;1.17;;;13.50;99.90;;;;;;4859352;29;20470;-74
2023/11/02 13:11:00;;;;;;;1.53;1.27;;;13.50;99.90;;;;;;4857696;29;21052;-74
2023/11/02 13:13:27;;;;;;;2.23;0.77;;;13.60;99.90;;;;;;4858289;29;20496;-74
2023/11/02 13:15:54;;;;;;;0.60;0.60;;;13.60;99.90;;;;;;4855498;29;20849;-73
2023/11/02 13:18:23;;;;;;;1.60;1.50;;;13.50;99.90;;;;;;4858301;29;20565;-73
2023/11/02 13:20:49;;;;;;;0.63;0.63;;;13.50;99.90;;;;;;4859460;29;20803;-73
2023/11/02 13:23:16;;;;;;;0.57;0.57;;;13.50;99.90;;;;;;4854144;29;20473;-74
2023/11/02 13:25:43;;;;;;;1.00;1.00;;;13.50;99.90;;;;;;4852692;29;20522;-74
2023/11/02 13:28:11;;;;;;;0.60;0.60;;;13.50;99.90;;;;;;4857445;29;23893;-74
2023/11/02 13:30:41;;;;;;;1.27;1.17;;;13.50;99.90;;;;;;4857622;29;20489;-74
2023/11/02 13:33:08;;;;;;;0.40;0.40;;;13.50;99.90;;;;;;4855226;29;20486;-74
2023/11/02 13:35:36;;;;;;;0.80;0.80;;;13.50;99.90;;;;;;4855599;29;20473;-74
2023/11/02 13:38:04;;;;;;;0.73;0.73;;;13.60;99.90;;;;;;4854333;29;20477;-73
2023/11/02 13:40:31;;;;;;;0.40;0.40;;;13.60;99.90;;;;;;4858090;29;21148;-74
2023/11/02 13:43:00;;;;;;;0.60;0.60;;;13.60;99.90;;;;;;4858206;29;20518;-74
2023/11/02 13:45:27;;;;;;;0.70;0.70;;;13.50;99.90;;;;;;4860003;29;20904;-73
2023/11/02 13:47:54;;;;;;;0.60;0.60;;;13.60;99.90;;;;;;4860149;29;20511;-74
2023/11/02 13:50:20;;;;;;;1.30;0.73;;;13.50;99.90;;;;;;4856166;29;21157;-73
2023/11/02 13:52:48;;;;;;;0.70;0.70;;;13.60;99.90;;;;;;4858067;29;20476;-74
2023/11/02 13:55:15;;;;;;;1.20;0.43;;;13.50;99.90;;;;;;4857970;29;20484;-74
2023/11/02 13:57:42;;;;;;;0.60;0.60;;;13.60;99.90;;;;;;4857939;29;20480;-73
2023/11/02 14:00:11;;;;;;;0.57;0.57;;;13.50;99.90;;;;;;4856783;29;20560;-75
2023/11/02 14:02:41;;;;;;;0.50;0.50;;;13.50;99.90;;;;;;4855585;29;20911;-75
2023/11/02 14:05:08;;;;;;;0.40;0.40;;;13.60;99.90;;;;;;4857171;29;20503;-74
2023/11/02 14:07:35;;;;;;;0.40;0.40;;;13.50;99.90;;;;;;4857880;29;20818;-75
2023/11/02 14:10:04;;;;;;;0.40;0.40;;;13.50;99.90;;;;;;4853225;29;20913;-74
2023/11/02 14:12:31;;;;;;;0.53;0.53;;;13.50;99.90;;;;;;4858498;29;20497;-74
2023/11/02 14:15:00;;;;;;;0.60;0.60;;;13.50;99.90;;;;;;4856811;29;20523;-73
2023/11/02 14:17:27;;;;;;;0.37;0.37;;;13.60;99.90;;;;;;4855081;29;20478;-73
2023/11/02 14:19:55;;;;;;;0.80;0.80;;;13.50;99.90;;;;;;4855235;29;20567;-75
2023/11/02 14:22:22;;;;;;;0.40;0.40;;;13.60;99.90;;;;;;4859536;29;20493;-73
2023/11/02 14:24:52;;;;;;;0.43;0.43;;;13.60;99.90;;;;;;4858358;29;20497;-74
2023/11/02 14:27:22;;;;;;;0.63;0.63;;;13.60;99.90;;;;;;4868579;29;20450;-74
2023/11/02 14:29:50;;;;;;;0.70;0.70;;;13.60;99.90;;;;;;4873578;29;20481;-74
2023/11/02 14:32:17;;;;;;;0.60;0.60;;;13.60;99.90;;;;;;4879456;29;20517;-75
2023/11/02 14:34:44;;;;;;;0.60;0.60;;;13.60;99.90;;;;;;4880240;29;20475;-75
2023/11/02 14:37:11;;;;;;;0.70;0.70;;;13.50;99.90;;;;;;4879715;29;20475;-73
2023/11/02 14:39:37;;;;;;;0.20;0.20;;;13.50;99.90;;;;;;4878543;29;20442;-74
2023/11/02 14:42:07;;;;;;;0.57;0.50;;;13.60;99.90;;;;;;4880287;29;20478;-73
2023/11/02 14:44:35;;;;;;;0.70;0.70;;;13.60;99.90;;;;;;4880331;29;20524;-74
2023/11/02 14:47:02;;;;;;;0.80;0.80;;;13.60;99.90;;;;;;4868076;29;20474;-74
2023/11/02 14:49:29;;;;;;;0.70;0.70;;;13.50;99.90;;;;;;4859171;29;20481;-71
2023/11/02 14:51:56;;;;;;;0.83;0.83;;;13.50;99.90;;;;;;4859711;29;20492;-73
2023/11/02 14:54:22;;;;;;;1.17;1.13;;;13.50;99.90;;;;;;4859568;29;20466;-74
2023/11/02 14:56:52;;;;;;;0.53;0.53;;;13.50;99.90;;;;;;4861066;29;20469;-73
2023/11/02 14:59:19;;;;;;;0.93;0.93;;;13.50;99.90;;;;;;4855422;29;20549;-74
2023/11/02 15:01:48;;;;;;;0.60;0.60;;;13.50;99.90;;;;;;4855060;29;20512;-74
2023/11/02 15:04:15;;;;;;;1.03;0.70;;;13.40;99.90;;;;;;4857262;29;20487;-73
2023/11/02 15:06:42;;;;;;;0.60;0.60;;;13.40;99.90;;;;;;4852897;29;20466;-74
2023/11/02 15:09:09;;;;;;;0.53;0.53;;;13.40;99.90;;;;;;4853524;29;20517;-73
2023/11/02 15:11:36;;;;;;;0.77;0.77;;;13.40;99.90;;;;;;4857673;29;20846;-73
2023/11/02 15:14:03;;;;;;;1.17;0.83;;;13.50;99.90;;;;;;4857166;29;20479;-73
2023/11/02 15:16:29;;;;;;;0.50;0.50;;;13.30;99.90;;;;;;4857054;29;20470;-73
2023/11/02 15:18:57;;;;;;;0.70;0.70;;;13.30;99.90;;;;;;4857040;29;20957;-74
2023/11/02 15:21:25;;;;;;;0.60;0.60;;;13.40;99.90;;;;;;4856942;29;20504;-74
2023/11/02 15:23:52;;;;;;;0.50;0.50;;;13.40;99.90;;;;;;4857556;29;21008;-73
2023/11/02 15:26:22;;;;;;;0.70;0.70;;;13.30;99.90;;;;;;4855878;29;20497;-73
2023/11/02 15:28:49;;;;;;;0.63;0.63;;;13.30;99.90;;;;;;4857591;29;20476;-74
2023/11/02 15:31:19;;;;;;;0.63;0.63;;;13.30;99.90;;;;;;4853857;29;20505;-74
2023/11/02 15:33:46;;;;;;;0.80;0.80;;;13.30;99.90;;;;;;4856382;29;20547;-73
2023/11/02 15:36:14;;;;;;;0.80;0.80;;;13.20;99.90;;;;;;4856968;29;20219;-74
2023/11/02 15:38:41;;;;;;;0.80;0.80;;;13.20;99.90;;;;;;4858140;29;20469;-74
2023/11/02 15:41:08;;;;;;;0.87;0.87;;;13.20;99.90;;;;;;4856189;29;20531;-73
2023/11/02 15:43:36;;;;;;;1.23;1.10;;;13.20;99.90;;;;;;4858005;29;20465;-73
2023/11/02 15:46:03;;;;;;;1.00;0.80;;;13.10;99.90;;;;;;4856319;29;20508;-73
2023/11/02 15:48:30;;;;;;;0.57;0.57;;;13.10;99.90;;;;;;4857410;29;20469;-74
2023/11/02 15:50:57;;;;;;;2.00;0.73;;;13.00;99.90;;;;;;4857919;29;20497;-74
2023/11/02 15:53:27;;;;;;;0.90;0.90;;;13.00;99.90;;;;;;4856335;29;21152;-74
2023/11/02 15:55:54;;;;;;;2.00;1.03;;;13.00;99.90;;;;;;4858063;29;20522;-74
2023/11/02 15:58:20;;;;;;;0.50;0.50;;;13.00;99.90;;;;;;4860345;29;20480;-74
2023/11/02 16:00:48;;;;;;;0.60;0.57;;;13.00;99.90;;;;;;4860245;29;20507;-74
2023/11/02 16:03:15;;;;;;;0.63;0.63;;;12.90;99.90;;;;;;4857170;29;20465;-74
2023/11/02 16:05:42;;;;;;;0.90;0.60;;;12.90;99.90;;;;;;4859448;29;20564;-74
2023/11/02 16:08:08;;;;;;;3.57;0.73;;;12.90;99.90;;;;;;4855529;29;20537;-73
2023/11/02 16:10:38;;;;;;;0.40;0.40;;;12.90;99.90;;;;;;4859075;29;20497;-73
2023/11/02 16:13:05;;;;;;;0.73;0.73;;;12.90;99.90;;;;;;4856622;29;20565;-73
2023/11/02 16:15:32;;;;;;;0.50;0.50;;;12.90;99.90;;;;;;4857824;29;20912;-73
2023/11/02 16:17:58;;;;;;;0.90;0.90;;;12.90;99.90;;;;;;4856973;29;20937;-73
2023/11/02 16:20:25;;;;;;;0.50;0.50;;;12.90;99.90;;;;;;4856423;29;20470;-73
2023/11/02 16:22:54;;;;;;;1.03;0.50;;;12.90;99.90;;;;;;4855981;29;20564;-73
2023/11/02 16:25:21;;;;;;;0.60;0.60;;;12.90;99.90;;;;;;4857525;29;20588;-73
2023/11/02 16:27:49;;;;;;;1.13;0.80;;;12.90;99.90;;;;;;4860606;29;20786;-73
2023/11/02 16:30:16;;;;;;;1.90;0.63;;;12.90;99.90;;;;;;4860113;29;20487;-73
2023/11/02 16:32:43;;;;;;;2.63;0.80;;;12.90;99.90;;;;;;4858851;29;20962;-73
2023/11/02 16:35:09;;;;;;;0.77;0.70;;;12.90;99.90;;;;;;4860209;29;20475;-74
2023/11/02 16:37:36;;;;;;;0.60;0.60;;;12.90;99.90;;;;;;4859557;29;20479;-73
2023/11/02 16:40:06;;;;;;;1.00;1.00;;;12.90;99.90;;;;;;4860005;29;20796;-73
2023/11/02 16:42:33;;;;;;;1.73;1.63;;;12.80;99.90;;;;;;4860568;29;20576;-72
2023/11/02 16:45:01;;;;;;;2.73;2.53;;;12.80;99.90;;;;;;4860127;29;20461;-73
2023/11/02 16:47:28;;;;;;;1.37;1.37;;;12.80;99.90;;;;;;4858902;29;20555;-73
2023/11/02 16:49:55;;;;;;;1.60;1.60;;;12.80;99.90;;;;;;4860559;29;20468;-75
2023/11/02 16:52:21;;;;;;;2.37;2.13;;;12.80;99.90;;;;;;4859202;29;20567;-74
2023/11/02 16:54:48;;;;;;;1.03;1.03;;;12.80;99.90;;;;;;4860403;29;20468;-73
2023/11/02 16:57:15;;;;;;;0.50;0.50;;;12.70;99.90;;;;;;4858997;29;20472;-74
2023/11/02 16:59:41;;;;;;;2.23;2.13;;;12.80;99.90;;;;;;4860257;29;20555;-74
2023/11/02 17:02:11;;;;;;;1.50;1.50;;;12.70;99.90;;;;;;4860012;29;20496;-73
2023/11/02 17:04:38;;;;;;;1.53;1.53;;;12.70;99.90;;;;;;4860028;29;20465;-74
2023/11/02 17:07:05;;;;;;;0.90;0.90;;;12.70;99.90;;;;;;4856004;29;20585;-73
2023/11/02 17:09:32;;;;;;;1.00;1.00;;;12.70;99.90;;;;;;4859750;29;20939;-73
2023/11/02 17:11:58;;;;;;;0.60;0.60;;;12.60;99.90;;;;;;4860159;29;20564;-73
2023/11/02 17:14:25;;;;;;;1.00;1.00;;;12.60;99.90;;;;;;4859287;29;20477;-74
2023/11/02 17:16:52;;;;;;;1.07;1.07;;;12.60;99.90;;;;;;4857637;29;20468;-74
2023/11/02 17:19:21;;;;;;;1.27;0.83;;;12.60;99.90;;;;;;4859606;29;20465;-73
2023/11/02 17:21:48;;;;;;;0.63;0.63;;;12.60;99.90;;;;;;4858305;29;20500;-74
2023/11/02 17:24:15;;;;;;;1.07;0.70;;;12.60;99.90;;;;;;4859357;29;20473;-74
2023/11/02 17:26:41;;;;;;;0.70;0.70;;;12.60;99.90;;;;;;4859718;29;20488;-73
2023/11/02 17:29:08;;;;;;;0.83;0.83;;;12.60;99.90;;;;;;4879553;23;20500;-71
2023/11/02 17:31:35;;;;;;;1.07;1.07;;;12.60;99.90;;;;;;4855838;29;20472;-73
2023/11/02 17:34:02;;;;;;;3.10;3.00;;;12.60;99.90;;;;;;4857922;29;20540;-72
2023/11/02 17:36:30;;;;;;;0.87;0.87;;;12.60;99.90;;;;;;4856713;29;21096;-71
2023/11/02 17:38:59;;;;;;;1.60;0.80;;;12.60;99.90;;;;;;4856011;29;20492;-72
2023/11/02 17:41:28;;;;;;;0.83;0.83;;;12.60;99.90;;;;;;4858710;29;20568;-72
2023/11/02 17:43:55;;;;;;;1.00;1.00;;;12.60;99.90;;;;;;4859792;29;20461;-72
2023/11/02 17:46:22;;;;;;;1.40;0.90;;;12.60;99.90;;;;;;4859016;29;20603;-72
2023/11/02 17:48:49;;;;;;;2.70;1.00;;;12.60;99.90;;;;;;4859535;29;20572;-73
2023/11/02 17:51:16;;;;;;;1.20;1.00;;;12.50;99.90;;;;;;4858588;29;20477;-72
2023/11/02 17:53:44;;;;;;;0.70;0.70;;;12.60;99.90;;;;;;4860663;29;20495;-72